sensor_id;sensor_type;location;lat;lon;timestamp;P1;durP1;ratioP1;P2;durP2;ratioP2
22754;SDS011;11544;42.020;23.094;2022-07-29T00:00:50;7.20;;;6.50;;
22754;SDS011;11544;42.020;23.094;2022-07-29T00:03:16;8.52;;;7.53;;
22754;SDS011;11544;42.020;23.094;2022-07-29T00:05:41;9.48;;;7.72;;
22754;SDS011;11544;42.020;23.094;2022-07-29T00:08:08;9.40;;;7.30;;
22754;SDS011;11544;42.020;23.094;2022-07-29T00:10:34;7.47;;;6.45;;
22754;SDS011;11544;42.020;23.094;2022-07-29T00:13:00;11.93;;;6.95;;
22754;SDS011;11544;42.020;23.094;2022-07-29T00:15:27;11.38;;;6.90;;
22754;SDS011;11544;42.020;23.094;2022-07-29T00:17:53;8.07;;;6.95;;
22754;SDS011;11544;42.020;23.094;2022-07-29T00:20:19;9.60;;;6.80;;
22754;SDS011;11544;42.020;23.094;2022-07-29T00:22:45;9.57;;;6.88;;
22754;SDS011;11544;42.020;23.094;2022-07-29T00:25:11;8.52;;;6.30;;
22754;SDS011;11544;42.020;23.094;2022-07-29T00:27:39;8.63;;;6.60;;
22754;SDS011;11544;42.020;23.094;2022-07-29T00:30:05;8.93;;;6.40;;
22754;SDS011;11544;42.020;23.094;2022-07-29T00:32:35;7.30;;;5.97;;
22754;SDS011;11544;42.020;23.094;2022-07-29T00:35:00;7.72;;;6.22;;
22754;SDS011;11544;42.020;23.094;2022-07-29T00:37:45;6.63;;;6.10;;
22754;SDS011;11544;42.020;23.094;2022-07-29T00:40:10;7.15;;;6.45;;
22754;SDS011;11544;42.020;23.094;2022-07-29T00:42:44;7.80;;;6.10;;
22754;SDS011;11544;42.020;23.094;2022-07-29T00:45:11;6.70;;;5.65;;
22754;SDS011;11544;42.020;23.094;2022-07-29T00:47:37;7.90;;;6.10;;
22754;SDS011;11544;42.020;23.094;2022-07-29T00:50:03;8.20;;;6.78;;
22754;SDS011;11544;42.020;23.094;2022-07-29T00:52:30;6.93;;;6.10;;
22754;SDS011;11544;42.020;23.094;2022-07-29T00:54:56;10.98;;;6.07;;
22754;SDS011;11544;42.020;23.094;2022-07-29T00:57:22;7.20;;;5.90;;
22754;SDS011;11544;42.020;23.094;2022-07-29T00:59:48;6.40;;;5.13;;
22754;SDS011;11544;42.020;23.094;2022-07-29T01:02:13;10.38;;;5.50;;
22754;SDS011;11544;42.020;23.094;2022-07-29T01:04:39;7.18;;;5.05;;
22754;SDS011;11544;42.020;23.094;2022-07-29T01:07:06;5.40;;;4.75;;
22754;SDS011;11544;42.020;23.094;2022-07-29T01:09:32;5.78;;;5.25;;
22754;SDS011;11544;42.020;23.094;2022-07-29T01:12:01;10.20;;;5.20;;
22754;SDS011;11544;42.020;23.094;2022-07-29T01:14:27;7.20;;;5.30;;
22754;SDS011;11544;42.020;23.094;2022-07-29T01:17:01;8.27;;;5.57;;
22754;SDS011;11544;42.020;23.094;2022-07-29T01:28:01;7.82;;;5.65;;
22754;SDS011;11544;42.020;23.094;2022-07-29T01:30:50;11.48;;;5.70;;
22754;SDS011;11544;42.020;23.094;2022-07-29T01:33:17;6.30;;;5.63;;
22754;SDS011;11544;42.020;23.094;2022-07-29T01:36:07;7.85;;;5.70;;
22754;SDS011;11544;42.020;23.094;2022-07-29T01:38:39;9.25;;;5.03;;
22754;SDS011;11544;42.020;23.094;2022-07-29T01:41:15;8.38;;;5.88;;
22754;SDS011;11544;42.020;23.094;2022-07-29T01:43:53;8.52;;;5.70;;
22754;SDS011;11544;42.020;23.094;2022-07-29T01:46:32;6.60;;;5.45;;
22754;SDS011;11544;42.020;23.094;2022-07-29T01:49:05;8.82;;;5.65;;
22754;SDS011;11544;42.020;23.094;2022-07-29T01:51:33;5.72;;;5.10;;
22754;SDS011;11544;42.020;23.094;2022-07-29T01:56:59;7.65;;;5.63;;
22754;SDS011;11544;42.020;23.094;2022-07-29T01:59:27;8.35;;;5.03;;
22754;SDS011;11544;42.020;23.094;2022-07-29T02:01:54;7.80;;;5.07;;
22754;SDS011;11544;42.020;23.094;2022-07-29T02:04:23;7.47;;;5.68;;
22754;SDS011;11544;42.020;23.094;2022-07-29T02:06:52;7.30;;;4.70;;
22754;SDS011;11544;42.020;23.094;2022-07-29T02:09:22;7.85;;;5.15;;
22754;SDS011;11544;42.020;23.094;2022-07-29T02:11:51;7.32;;;4.97;;
22754;SDS011;11544;42.020;23.094;2022-07-29T02:14:20;6.80;;;5.45;;
22754;SDS011;11544;42.020;23.094;2022-07-29T02:16:48;6.65;;;5.03;;
22754;SDS011;11544;42.020;23.094;2022-07-29T02:19:19;5.75;;;5.18;;
22754;SDS011;11544;42.020;23.094;2022-07-29T02:21:47;5.70;;;5.10;;
22754;SDS011;11544;42.020;23.094;2022-07-29T02:24:14;7.03;;;5.47;;
22754;SDS011;11544;42.020;23.094;2022-07-29T02:26:43;9.55;;;6.57;;
22754;SDS011;11544;42.020;23.094;2022-07-29T02:29:10;9.20;;;6.05;;
22754;SDS011;11544;42.020;23.094;2022-07-29T02:31:38;6.30;;;5.50;;
22754;SDS011;11544;42.020;23.094;2022-07-29T02:34:06;8.23;;;6.18;;
22754;SDS011;11544;42.020;23.094;2022-07-29T02:36:33;7.55;;;5.93;;
22754;SDS011;11544;42.020;23.094;2022-07-29T02:39:00;8.27;;;5.97;;
22754;SDS011;11544;42.020;23.094;2022-07-29T02:41:28;10.50;;;6.20;;
22754;SDS011;11544;42.020;23.094;2022-07-29T02:44:10;7.57;;;5.68;;
22754;SDS011;11544;42.020;23.094;2022-07-29T02:46:51;8.27;;;6.05;;
22754;SDS011;11544;42.020;23.094;2022-07-29T02:49:29;10.98;;;6.03;;
22754;SDS011;11544;42.020;23.094;2022-07-29T02:52:06;8.20;;;5.60;;
22754;SDS011;11544;42.020;23.094;2022-07-29T02:54:44;9.30;;;5.75;;
22754;SDS011;11544;42.020;23.094;2022-07-29T02:57:19;6.72;;;5.28;;
22754;SDS011;11544;42.020;23.094;2022-07-29T02:59:47;8.65;;;5.75;;
22754;SDS011;11544;42.020;23.094;2022-07-29T03:02:16;9.13;;;6.30;;
22754;SDS011;11544;42.020;23.094;2022-07-29T03:04:42;9.77;;;5.97;;
22754;SDS011;11544;42.020;23.094;2022-07-29T03:07:10;8.13;;;5.90;;
22754;SDS011;11544;42.020;23.094;2022-07-29T03:09:38;8.88;;;6.10;;
22754;SDS011;11544;42.020;23.094;2022-07-29T03:12:06;5.97;;;5.30;;
22754;SDS011;11544;42.020;23.094;2022-07-29T03:14:33;10.98;;;6.15;;
22754;SDS011;11544;42.020;23.094;2022-07-29T03:17:00;10.73;;;6.97;;
22754;SDS011;11544;42.020;23.094;2022-07-29T03:19:27;6.95;;;5.80;;
22754;SDS011;11544;42.020;23.094;2022-07-29T03:21:55;9.90;;;5.97;;
22754;SDS011;11544;42.020;23.094;2022-07-29T03:24:29;9.07;;;6.10;;
22754;SDS011;11544;42.020;23.094;2022-07-29T03:26:58;10.65;;;6.43;;
22754;SDS011;11544;42.020;23.094;2022-07-29T03:29:24;9.63;;;6.28;;
22754;SDS011;11544;42.020;23.094;2022-07-29T03:31:50;8.18;;;5.85;;
22754;SDS011;11544;42.020;23.094;2022-07-29T03:34:16;6.97;;;6.00;;
22754;SDS011;11544;42.020;23.094;2022-07-29T03:36:42;13.82;;;6.57;;
22754;SDS011;11544;42.020;23.094;2022-07-29T03:39:08;8.23;;;6.15;;
22754;SDS011;11544;42.020;23.094;2022-07-29T03:41:36;9.90;;;6.47;;
22754;SDS011;11544;42.020;23.094;2022-07-29T03:44:05;8.02;;;6.07;;
22754;SDS011;11544;42.020;23.094;2022-07-29T03:46:32;10.50;;;6.45;;
22754;SDS011;11544;42.020;23.094;2022-07-29T03:49:01;11.77;;;5.55;;
22754;SDS011;11544;42.020;23.094;2022-07-29T03:51:29;7.88;;;6.45;;
22754;SDS011;11544;42.020;23.094;2022-07-29T03:53:56;13.90;;;6.15;;
22754;SDS011;11544;42.020;23.094;2022-07-29T03:56:22;7.15;;;6.10;;
22754;SDS011;11544;42.020;23.094;2022-07-29T03:58:50;12.52;;;6.35;;
22754;SDS011;11544;42.020;23.094;2022-07-29T04:01:18;6.93;;;5.93;;
22754;SDS011;11544;42.020;23.094;2022-07-29T04:03:45;7.65;;;6.43;;
22754;SDS011;11544;42.020;23.094;2022-07-29T04:06:12;9.43;;;6.55;;
22754;SDS011;11544;42.020;23.094;2022-07-29T04:08:38;12.35;;;6.32;;
22754;SDS011;11544;42.020;23.094;2022-07-29T04:11:04;9.18;;;7.22;;
22754;SDS011;11544;42.020;23.094;2022-07-29T04:13:31;8.00;;;6.18;;
22754;SDS011;11544;42.020;23.094;2022-07-29T04:15:57;9.00;;;6.43;;
22754;SDS011;11544;42.020;23.094;2022-07-29T04:18:23;9.07;;;6.90;;
22754;SDS011;11544;42.020;23.094;2022-07-29T04:20:49;8.07;;;6.63;;
22754;SDS011;11544;42.020;23.094;2022-07-29T04:23:15;14.43;;;7.38;;
22754;SDS011;11544;42.020;23.094;2022-07-29T04:25:41;11.32;;;8.23;;
22754;SDS011;11544;42.020;23.094;2022-07-29T04:28:08;12.20;;;8.77;;
22754;SDS011;11544;42.020;23.094;2022-07-29T04:30:35;13.23;;;9.60;;
22754;SDS011;11544;42.020;23.094;2022-07-29T04:33:03;13.82;;;10.73;;
22754;SDS011;11544;42.020;23.094;2022-07-29T04:35:31;13.70;;;9.15;;
22754;SDS011;11544;42.020;23.094;2022-07-29T04:38:00;12.13;;;8.90;;
22754;SDS011;11544;42.020;23.094;2022-07-29T04:40:25;13.63;;;8.35;;
22754;SDS011;11544;42.020;23.094;2022-07-29T04:42:51;10.80;;;8.50;;
22754;SDS011;11544;42.020;23.094;2022-07-29T04:45:17;8.95;;;8.05;;
22754;SDS011;11544;42.020;23.094;2022-07-29T04:47:43;8.55;;;7.68;;
22754;SDS011;11544;42.020;23.094;2022-07-29T04:50:09;12.25;;;9.10;;
22754;SDS011;11544;42.020;23.094;2022-07-29T04:52:35;9.45;;;8.00;;
22754;SDS011;11544;42.020;23.094;2022-07-29T04:55:01;9.82;;;8.50;;
22754;SDS011;11544;42.020;23.094;2022-07-29T04:57:27;12.27;;;8.55;;
22754;SDS011;11544;42.020;23.094;2022-07-29T04:59:53;13.98;;;8.70;;
22754;SDS011;11544;42.020;23.094;2022-07-29T05:02:22;17.25;;;10.23;;
22754;SDS011;11544;42.020;23.094;2022-07-29T05:04:48;14.90;;;13.27;;
22754;SDS011;11544;42.020;23.094;2022-07-29T05:07:13;25.50;;;13.73;;
22754;SDS011;11544;42.020;23.094;2022-07-29T05:09:39;18.23;;;12.82;;
22754;SDS011;11544;42.020;23.094;2022-07-29T05:12:05;21.08;;;13.80;;
22754;SDS011;11544;42.020;23.094;2022-07-29T05:14:32;17.20;;;13.95;;
22754;SDS011;11544;42.020;23.094;2022-07-29T05:16:58;19.88;;;13.90;;
22754;SDS011;11544;42.020;23.094;2022-07-29T05:19:27;19.58;;;16.27;;
22754;SDS011;11544;42.020;23.094;2022-07-29T05:21:53;18.60;;;15.57;;
22754;SDS011;11544;42.020;23.094;2022-07-29T05:24:18;19.90;;;15.45;;
22754;SDS011;11544;42.020;23.094;2022-07-29T05:26:44;20.48;;;15.82;;
22754;SDS011;11544;42.020;23.094;2022-07-29T05:29:10;18.20;;;15.63;;
22754;SDS011;11544;42.020;23.094;2022-07-29T05:31:36;23.85;;;16.52;;
22754;SDS011;11544;42.020;23.094;2022-07-29T05:34:02;20.52;;;14.38;;
22754;SDS011;11544;42.020;23.094;2022-07-29T05:36:28;16.63;;;13.90;;
22754;SDS011;11544;42.020;23.094;2022-07-29T05:38:53;22.17;;;14.88;;
22754;SDS011;11544;42.020;23.094;2022-07-29T05:41:19;16.73;;;14.55;;
22754;SDS011;11544;42.020;23.094;2022-07-29T05:43:46;16.05;;;14.35;;
22754;SDS011;11544;42.020;23.094;2022-07-29T05:46:12;19.27;;;15.13;;
22754;SDS011;11544;42.020;23.094;2022-07-29T05:48:39;21.95;;;16.42;;
22754;SDS011;11544;42.020;23.094;2022-07-29T05:51:05;20.95;;;16.00;;
22754;SDS011;11544;42.020;23.094;2022-07-29T05:53:31;23.63;;;15.52;;
22754;SDS011;11544;42.020;23.094;2022-07-29T05:55:56;17.02;;;13.80;;
22754;SDS011;11544;42.020;23.094;2022-07-29T05:58:22;16.58;;;14.68;;
22754;SDS011;11544;42.020;23.094;2022-07-29T06:00:48;16.50;;;14.40;;
22754;SDS011;11544;42.020;23.094;2022-07-29T06:03:14;23.98;;;16.02;;
22754;SDS011;11544;42.020;23.094;2022-07-29T06:05:40;18.33;;;14.10;;
22754;SDS011;11544;42.020;23.094;2022-07-29T06:08:06;16.75;;;14.55;;
22754;SDS011;11544;42.020;23.094;2022-07-29T06:10:32;15.68;;;13.98;;
22754;SDS011;11544;42.020;23.094;2022-07-29T06:12:59;18.00;;;14.10;;
22754;SDS011;11544;42.020;23.094;2022-07-29T06:15:25;17.33;;;14.05;;
22754;SDS011;11544;42.020;23.094;2022-07-29T06:17:51;15.30;;;13.18;;
22754;SDS011;11544;42.020;23.094;2022-07-29T06:20:18;15.50;;;13.20;;
22754;SDS011;11544;42.020;23.094;2022-07-29T06:22:44;19.63;;;13.85;;
22754;SDS011;11544;42.020;23.094;2022-07-29T06:25:09;18.05;;;13.63;;
22754;SDS011;11544;42.020;23.094;2022-07-29T06:27:35;14.43;;;12.93;;
22754;SDS011;11544;42.020;23.094;2022-07-29T06:30:01;17.42;;;13.98;;
22754;SDS011;11544;42.020;23.094;2022-07-29T06:32:28;24.02;;;14.88;;
22754;SDS011;11544;42.020;23.094;2022-07-29T06:34:53;21.73;;;19.52;;
22754;SDS011;11544;42.020;23.094;2022-07-29T06:37:19;27.23;;;16.30;;
22754;SDS011;11544;42.020;23.094;2022-07-29T06:39:59;16.50;;;14.50;;
22754;SDS011;11544;42.020;23.094;2022-07-29T06:42:59;21.98;;;14.27;;
22754;SDS011;11544;42.020;23.094;2022-07-29T06:45:24;19.67;;;16.77;;
22754;SDS011;11544;42.020;23.094;2022-07-29T06:47:50;17.48;;;15.55;;
22754;SDS011;11544;42.020;23.094;2022-07-29T06:50:16;19.38;;;15.55;;
22754;SDS011;11544;42.020;23.094;2022-07-29T06:52:42;18.38;;;16.33;;
22754;SDS011;11544;42.020;23.094;2022-07-29T06:55:08;23.45;;;16.30;;
22754;SDS011;11544;42.020;23.094;2022-07-29T06:57:34;21.52;;;15.88;;
22754;SDS011;11544;42.020;23.094;2022-07-29T07:00:03;20.85;;;16.08;;
22754;SDS011;11544;42.020;23.094;2022-07-29T07:02:30;21.35;;;15.95;;
22754;SDS011;11544;42.020;23.094;2022-07-29T07:04:56;24.63;;;15.55;;
22754;SDS011;11544;42.020;23.094;2022-07-29T07:07:21;16.75;;;14.68;;
22754;SDS011;11544;42.020;23.094;2022-07-29T07:09:47;18.88;;;16.15;;
22754;SDS011;11544;42.020;23.094;2022-07-29T07:12:13;18.67;;;14.60;;
22754;SDS011;11544;42.020;23.094;2022-07-29T07:14:48;22.33;;;15.02;;
22754;SDS011;11544;42.020;23.094;2022-07-29T07:17:27;21.53;;;15.43;;
22754;SDS011;11544;42.020;23.094;2022-07-29T07:26:27;22.27;;;15.25;;
22754;SDS011;11544;42.020;23.094;2022-07-29T07:28:53;21.08;;;15.38;;
22754;SDS011;11544;42.020;23.094;2022-07-29T07:31:19;22.85;;;14.55;;
22754;SDS011;11544;42.020;23.094;2022-07-29T07:33:45;27.92;;;15.35;;
22754;SDS011;11544;42.020;23.094;2022-07-29T07:36:10;20.40;;;15.15;;
22754;SDS011;11544;42.020;23.094;2022-07-29T07:38:36;19.65;;;12.93;;
22754;SDS011;11544;42.020;23.094;2022-07-29T07:41:02;18.13;;;13.30;;
22754;SDS011;11544;42.020;23.094;2022-07-29T07:43:54;21.38;;;14.50;;
22754;SDS011;11544;42.020;23.094;2022-07-29T07:46:19;19.45;;;15.05;;
22754;SDS011;11544;42.020;23.094;2022-07-29T07:48:45;25.88;;;16.85;;
22754;SDS011;11544;42.020;23.094;2022-07-29T07:51:11;20.60;;;15.60;;
22754;SDS011;11544;42.020;23.094;2022-07-29T07:53:36;21.45;;;15.43;;
22754;SDS011;11544;42.020;23.094;2022-07-29T07:56:02;22.83;;;15.68;;
22754;SDS011;11544;42.020;23.094;2022-07-29T07:58:29;19.08;;;14.10;;
22754;SDS011;11544;42.020;23.094;2022-07-29T08:00:55;18.40;;;14.43;;
22754;SDS011;11544;42.020;23.094;2022-07-29T08:03:20;16.90;;;14.70;;
22754;SDS011;11544;42.020;23.094;2022-07-29T08:05:46;19.70;;;15.43;;
22754;SDS011;11544;42.020;23.094;2022-07-29T08:08:13;23.77;;;15.07;;
22754;SDS011;11544;42.020;23.094;2022-07-29T08:10:39;21.73;;;15.02;;
22754;SDS011;11544;42.020;23.094;2022-07-29T08:13:24;17.88;;;15.55;;
22754;SDS011;11544;42.020;23.094;2022-07-29T08:15:53;16.35;;;14.45;;
22754;SDS011;11544;42.020;23.094;2022-07-29T08:18:29;20.70;;;14.95;;
22754;SDS011;11544;42.020;23.094;2022-07-29T08:20:56;15.73;;;13.15;;
22754;SDS011;11544;42.020;23.094;2022-07-29T08:23:23;18.80;;;14.98;;
22754;SDS011;11544;42.020;23.094;2022-07-29T08:25:49;16.58;;;14.05;;
22754;SDS011;11544;42.020;23.094;2022-07-29T08:28:15;18.60;;;13.80;;
22754;SDS011;11544;42.020;23.094;2022-07-29T08:30:41;17.05;;;13.95;;
22754;SDS011;11544;42.020;23.094;2022-07-29T08:33:07;17.20;;;13.85;;
22754;SDS011;11544;42.020;23.094;2022-07-29T08:35:33;17.02;;;14.75;;
22754;SDS011;11544;42.020;23.094;2022-07-29T08:37:59;16.17;;;14.48;;
22754;SDS011;11544;42.020;23.094;2022-07-29T08:40:24;17.90;;;13.65;;
22754;SDS011;11544;42.020;23.094;2022-07-29T08:42:51;16.65;;;13.30;;
22754;SDS011;11544;42.020;23.094;2022-07-29T08:45:17;15.63;;;13.40;;
22754;SDS011;11544;42.020;23.094;2022-07-29T08:47:44;18.20;;;13.25;;
22754;SDS011;11544;42.020;23.094;2022-07-29T08:50:10;15.77;;;11.93;;
22754;SDS011;11544;42.020;23.094;2022-07-29T08:52:37;15.85;;;11.63;;
22754;SDS011;11544;42.020;23.094;2022-07-29T08:55:05;12.82;;;10.88;;
22754;SDS011;11544;42.020;23.094;2022-07-29T08:57:32;13.80;;;10.35;;
22754;SDS011;11544;42.020;23.094;2022-07-29T09:00:05;12.57;;;11.05;;
22754;SDS011;11544;42.020;23.094;2022-07-29T09:02:35;15.45;;;12.13;;
22754;SDS011;11544;42.020;23.094;2022-07-29T09:05:07;16.25;;;11.10;;
22754;SDS011;11544;42.020;23.094;2022-07-29T09:07:33;14.20;;;12.35;;
22754;SDS011;11544;42.020;23.094;2022-07-29T09:09:59;13.55;;;12.10;;
22754;SDS011;11544;42.020;23.094;2022-07-29T09:12:25;12.10;;;10.77;;
22754;SDS011;11544;42.020;23.094;2022-07-29T09:14:51;16.60;;;11.45;;
22754;SDS011;11544;42.020;23.094;2022-07-29T09:17:17;16.58;;;12.20;;
22754;SDS011;11544;42.020;23.094;2022-07-29T09:19:44;16.73;;;14.32;;
22754;SDS011;11544;42.020;23.094;2022-07-29T09:22:10;17.45;;;12.80;;
22754;SDS011;11544;42.020;23.094;2022-07-29T09:24:38;14.70;;;13.05;;
22754;SDS011;11544;42.020;23.094;2022-07-29T09:27:18;13.52;;;12.13;;
22754;SDS011;11544;42.020;23.094;2022-07-29T09:30:01;13.27;;;11.15;;
22754;SDS011;11544;42.020;23.094;2022-07-29T09:32:29;17.92;;;12.48;;
22754;SDS011;11544;42.020;23.094;2022-07-29T09:38:09;19.48;;;14.25;;
22754;SDS011;11544;42.020;23.094;2022-07-29T09:40:35;15.63;;;14.02;;
22754;SDS011;11544;42.020;23.094;2022-07-29T09:43:09;14.65;;;13.10;;
22754;SDS011;11544;42.020;23.094;2022-07-29T09:45:40;15.27;;;12.52;;
22754;SDS011;11544;42.020;23.094;2022-07-29T09:51:01;13.57;;;12.13;;
22754;SDS011;11544;42.020;23.094;2022-07-29T09:53:37;12.55;;;11.32;;
22754;SDS011;11544;42.020;23.094;2022-07-29T09:56:04;13.20;;;11.10;;
22754;SDS011;11544;42.020;23.094;2022-07-29T09:58:30;17.67;;;11.70;;
22754;SDS011;11544;42.020;23.094;2022-07-29T10:00:59;14.73;;;12.98;;
22754;SDS011;11544;42.020;23.094;2022-07-29T10:03:24;14.57;;;13.27;;
22754;SDS011;11544;42.020;23.094;2022-07-29T10:06:06;14.63;;;13.05;;
22754;SDS011;11544;42.020;23.094;2022-07-29T10:08:34;16.08;;;12.38;;
22754;SDS011;11544;42.020;23.094;2022-07-29T10:11:10;18.80;;;11.25;;
22754;SDS011;11544;42.020;23.094;2022-07-29T10:13:38;14.52;;;11.30;;
22754;SDS011;11544;42.020;23.094;2022-07-29T10:16:06;13.50;;;11.13;;
22754;SDS011;11544;42.020;23.094;2022-07-29T10:18:32;14.23;;;12.52;;
22754;SDS011;11544;42.020;23.094;2022-07-29T10:20:59;14.75;;;11.60;;
22754;SDS011;11544;42.020;23.094;2022-07-29T10:23:27;14.73;;;11.75;;
22754;SDS011;11544;42.020;23.094;2022-07-29T10:25:54;13.95;;;12.40;;
22754;SDS011;11544;42.020;23.094;2022-07-29T10:28:20;15.77;;;11.63;;
22754;SDS011;11544;42.020;23.094;2022-07-29T10:30:46;15.98;;;11.45;;
22754;SDS011;11544;42.020;23.094;2022-07-29T10:33:31;16.40;;;9.07;;
22754;SDS011;11544;42.020;23.094;2022-07-29T10:36:38;11.75;;;9.57;;
22754;SDS011;11544;42.020;23.094;2022-07-29T10:39:39;17.38;;;11.15;;
22754;SDS011;11544;42.020;23.094;2022-07-29T10:42:25;20.48;;;13.32;;
22754;SDS011;11544;42.020;23.094;2022-07-29T10:44:54;15.65;;;12.77;;
22754;SDS011;11544;42.020;23.094;2022-07-29T10:49:56;10.77;;;9.68;;
22754;SDS011;11544;42.020;23.094;2022-07-29T10:52:24;12.18;;;11.02;;
22754;SDS011;11544;42.020;23.094;2022-07-29T10:54:52;16.33;;;11.40;;
22754;SDS011;11544;42.020;23.094;2022-07-29T10:57:23;12.25;;;11.02;;
22754;SDS011;11544;42.020;23.094;2022-07-29T11:05:04;13.13;;;11.77;;
22754;SDS011;11544;42.020;23.094;2022-07-29T11:10:41;15.00;;;12.43;;
22754;SDS011;11544;42.020;23.094;2022-07-29T11:13:07;15.95;;;11.05;;
22754;SDS011;11544;42.020;23.094;2022-07-29T11:18:19;12.63;;;11.43;;
22754;SDS011;11544;42.020;23.094;2022-07-29T11:20:48;11.98;;;10.65;;
22754;SDS011;11544;42.020;23.094;2022-07-29T11:28:49;10.65;;;9.63;;
22754;SDS011;11544;42.020;23.094;2022-07-29T11:31:31;11.48;;;9.50;;
22754;SDS011;11544;42.020;23.094;2022-07-29T11:45:00;11.48;;;10.18;;
22754;SDS011;11544;42.020;23.094;2022-07-29T11:47:37;11.35;;;9.50;;
22754;SDS011;11544;42.020;23.094;2022-07-29T11:50:06;11.80;;;9.77;;
22754;SDS011;11544;42.020;23.094;2022-07-29T11:52:40;10.15;;;9.15;;
22754;SDS011;11544;42.020;23.094;2022-07-29T11:55:12;12.23;;;9.18;;
22754;SDS011;11544;42.020;23.094;2022-07-29T11:57:58;12.65;;;9.48;;
22754;SDS011;11544;42.020;23.094;2022-07-29T12:00:27;10.63;;;9.73;;
22754;SDS011;11544;42.020;23.094;2022-07-29T12:03:00;10.60;;;9.60;;
22754;SDS011;11544;42.020;23.094;2022-07-29T12:05:41;10.50;;;9.45;;
22754;SDS011;11544;42.020;23.094;2022-07-29T12:08:16;10.85;;;9.38;;
22754;SDS011;11544;42.020;23.094;2022-07-29T12:10:54;14.68;;;10.10;;
22754;SDS011;11544;42.020;23.094;2022-07-29T12:13:19;11.55;;;10.23;;
22754;SDS011;11544;42.020;23.094;2022-07-29T12:15:53;10.77;;;9.68;;
22754;SDS011;11544;42.020;23.094;2022-07-29T12:18:20;10.77;;;9.68;;
22754;SDS011;11544;42.020;23.094;2022-07-29T12:20:47;12.38;;;9.80;;
22754;SDS011;11544;42.020;23.094;2022-07-29T12:23:14;11.60;;;9.73;;
22754;SDS011;11544;42.020;23.094;2022-07-29T12:25:42;11.77;;;9.13;;
22754;SDS011;11544;42.020;23.094;2022-07-29T12:28:10;9.85;;;9.00;;
22754;SDS011;11544;42.020;23.094;2022-07-29T12:30:42;10.43;;;8.95;;
22754;SDS011;11544;42.020;23.094;2022-07-29T12:33:15;9.68;;;8.88;;
22754;SDS011;11544;42.020;23.094;2022-07-29T12:35:47;11.57;;;10.18;;
22754;SDS011;11544;42.020;23.094;2022-07-29T12:38:15;10.27;;;9.32;;
22754;SDS011;11544;42.020;23.094;2022-07-29T12:40:42;10.88;;;9.95;;
22754;SDS011;11544;42.020;23.094;2022-07-29T12:43:10;12.23;;;9.80;;
22754;SDS011;11544;42.020;23.094;2022-07-29T12:46:15;9.80;;;8.90;;
22754;SDS011;11544;42.020;23.094;2022-07-29T12:48:52;11.23;;;9.25;;
22754;SDS011;11544;42.020;23.094;2022-07-29T12:51:34;10.68;;;9.00;;
22754;SDS011;11544;42.020;23.094;2022-07-29T12:54:14;11.05;;;9.38;;
22754;SDS011;11544;42.020;23.094;2022-07-29T12:56:59;10.30;;;9.15;;
22754;SDS011;11544;42.020;23.094;2022-07-29T12:59:25;9.57;;;8.77;;
22754;SDS011;11544;42.020;23.094;2022-07-29T13:01:52;10.40;;;9.18;;
22754;SDS011;11544;42.020;23.094;2022-07-29T13:06:47;9.82;;;8.88;;
22754;SDS011;11544;42.020;23.094;2022-07-29T13:09:14;9.25;;;8.45;;
22754;SDS011;11544;42.020;23.094;2022-07-29T13:11:46;10.25;;;8.82;;
22754;SDS011;11544;42.020;23.094;2022-07-29T13:14:29;10.23;;;8.63;;
22754;SDS011;11544;42.020;23.094;2022-07-29T13:17:06;9.88;;;8.98;;
22754;SDS011;11544;42.020;23.094;2022-07-29T13:22:10;9.52;;;8.57;;
22754;SDS011;11544;42.020;23.094;2022-07-29T13:27:19;13.15;;;9.38;;
22754;SDS011;11544;42.020;23.094;2022-07-29T13:29:50;9.70;;;8.80;;
22754;SDS011;11544;42.020;23.094;2022-07-29T13:32:18;9.90;;;8.45;;
22754;SDS011;11544;42.020;23.094;2022-07-29T13:34:45;9.10;;;8.40;;
22754;SDS011;11544;42.020;23.094;2022-07-29T13:37:11;9.20;;;8.35;;
22754;SDS011;11544;42.020;23.094;2022-07-29T13:39:36;9.68;;;8.68;;
22754;SDS011;11544;42.020;23.094;2022-07-29T13:42:11;8.95;;;8.02;;
22754;SDS011;11544;42.020;23.094;2022-07-29T13:44:38;9.55;;;8.75;;
22754;SDS011;11544;42.020;23.094;2022-07-29T13:47:05;9.73;;;8.93;;
22754;SDS011;11544;42.020;23.094;2022-07-29T13:49:31;12.52;;;9.18;;
22754;SDS011;11544;42.020;23.094;2022-07-29T13:51:57;10.68;;;8.93;;
22754;SDS011;11544;42.020;23.094;2022-07-29T13:54:23;10.32;;;9.32;;
22754;SDS011;11544;42.020;23.094;2022-07-29T13:56:49;9.38;;;8.57;;
22754;SDS011;11544;42.020;23.094;2022-07-29T13:59:16;9.52;;;8.45;;
22754;SDS011;11544;42.020;23.094;2022-07-29T14:01:41;10.27;;;8.15;;
22754;SDS011;11544;42.020;23.094;2022-07-29T14:04:08;10.18;;;9.27;;
22754;SDS011;11544;42.020;23.094;2022-07-29T14:06:34;9.60;;;8.45;;
22754;SDS011;11544;42.020;23.094;2022-07-29T14:09:00;9.00;;;8.10;;
22754;SDS011;11544;42.020;23.094;2022-07-29T14:11:26;10.13;;;8.95;;
22754;SDS011;11544;42.020;23.094;2022-07-29T14:13:52;9.43;;;8.63;;
22754;SDS011;11544;42.020;23.094;2022-07-29T14:16:17;9.20;;;8.35;;
22754;SDS011;11544;42.020;23.094;2022-07-29T14:18:43;10.40;;;8.70;;
22754;SDS011;11544;42.020;23.094;2022-07-29T14:21:12;8.25;;;7.53;;
22754;SDS011;11544;42.020;23.094;2022-07-29T14:23:38;9.63;;;8.05;;
22754;SDS011;11544;42.020;23.094;2022-07-29T14:26:06;8.90;;;8.00;;
22754;SDS011;11544;42.020;23.094;2022-07-29T14:28:33;8.70;;;7.93;;
22754;SDS011;11544;42.020;23.094;2022-07-29T14:30:58;10.80;;;8.60;;
22754;SDS011;11544;42.020;23.094;2022-07-29T14:33:24;9.25;;;8.38;;
22754;SDS011;11544;42.020;23.094;2022-07-29T14:35:50;9.82;;;8.43;;
22754;SDS011;11544;42.020;23.094;2022-07-29T14:38:16;8.60;;;7.80;;
22754;SDS011;11544;42.020;23.094;2022-07-29T14:40:41;8.45;;;7.70;;
22754;SDS011;11544;42.020;23.094;2022-07-29T14:43:07;8.23;;;7.43;;
22754;SDS011;11544;42.020;23.094;2022-07-29T14:45:33;8.10;;;7.30;;
22754;SDS011;11544;42.020;23.094;2022-07-29T14:47:59;7.93;;;7.18;;
22754;SDS011;11544;42.020;23.094;2022-07-29T14:50:26;8.55;;;6.55;;
22754;SDS011;11544;42.020;23.094;2022-07-29T14:52:52;8.88;;;7.20;;
22754;SDS011;11544;42.020;23.094;2022-07-29T14:55:18;8.68;;;7.25;;
22754;SDS011;11544;42.020;23.094;2022-07-29T14:57:44;8.10;;;7.22;;
22754;SDS011;11544;42.020;23.094;2022-07-29T15:00:10;8.70;;;7.63;;
22754;SDS011;11544;42.020;23.094;2022-07-29T15:02:38;8.07;;;7.20;;
22754;SDS011;11544;42.020;23.094;2022-07-29T15:05:04;7.80;;;7.10;;
22754;SDS011;11544;42.020;23.094;2022-07-29T15:07:30;9.82;;;6.93;;
22754;SDS011;11544;42.020;23.094;2022-07-29T15:09:57;8.20;;;7.35;;
22754;SDS011;11544;42.020;23.094;2022-07-29T15:12:22;8.73;;;7.50;;
22754;SDS011;11544;42.020;23.094;2022-07-29T15:14:48;9.65;;;8.05;;
22754;SDS011;11544;42.020;23.094;2022-07-29T15:17:14;8.52;;;7.72;;
22754;SDS011;11544;42.020;23.094;2022-07-29T15:19:39;10.90;;;8.88;;
22754;SDS011;11544;42.020;23.094;2022-07-29T15:22:05;10.82;;;9.60;;
22754;SDS011;11544;42.020;23.094;2022-07-29T15:24:31;12.10;;;9.88;;
22754;SDS011;11544;42.020;23.094;2022-07-29T15:26:57;11.23;;;10.05;;
22754;SDS011;11544;42.020;23.094;2022-07-29T15:29:23;11.55;;;10.50;;
22754;SDS011;11544;42.020;23.094;2022-07-29T15:31:49;11.45;;;10.32;;